| time (UTC) | temp F | wind direction | speed MPH | gust MPH | rain 1hr in | rain 24hr in | rain mn in | humidity % | barometer mb |
| 20260905201515 | 54 | 272 | 7.0 | 9.0 | 0.00 | 0.00 | 0.00 | 100 | 1004.4 |
| 20260905201313 | 54 | 291 | 6.0 | 8.0 | 0.00 | 0.00 | 0.00 | 100 | 1004.3 |
| 20260905201112 | 54 | 291 | 5.0 | 7.0 | 0.00 | 0.00 | 0.00 | 100 | 1004.3 |
| 20260905200910 | 54 | 284 | 5.0 | 6.0 | 0.00 | 0.00 | 0.00 | 100 | 1004.2 |
| 20260905200708 | 54 | 288 | 7.0 | 10.0 | 0.00 | 0.00 | 0.00 | 100 | 1004.2 |
| 20260905200507 | 54 | 272 | 7.0 | 11.0 | 0.00 | 0.00 | 0.00 | 100 | 1004.2 |
| 20260905200314 | 54 | 279 | 7.0 | 11.0 | 0.00 | 0.00 | 0.00 | 100 | 1004.3 |
| 20260905200112 | 54 | 279 | 6.0 | 9.0 | 0.00 | 0.00 | 0.00 | 100 | 1004.3 |
| 20260905195911 | 54 | 280 | 6.0 | 11.0 | 0.00 | 0.00 | 0.00 | 100 | 1004.3 |
| 20260905195708 | 54 | 285 | 6.0 | 9.0 | 0.00 | 0.00 | 0.00 | 100 | 1004.2 |
| 20260905195507 | 54 | 280 | 7.0 | 10.0 | 0.00 | 0.00 | 0.00 | 100 | 1004.2 |
| 20260905195306 | 54 | 292 | 5.0 | 9.0 | 0.00 | 0.00 | 0.00 | 100 | 1004.2 |
| 20260905195102 | 54 | 287 | 5.0 | 8.0 | 0.00 | 0.00 | 0.00 | 100 | 1004.3 |
| 20260905194901 | 54 | 287 | 6.0 | 9.0 | 0.00 | 0.00 | 0.00 | 100 | 1004.2 |
| 20260905194708 | 54 | 287 | 5.0 | 8.0 | 0.00 | 0.00 | 0.00 | 100 | 1004.2 |
| 20260905194506 | 54 | 289 | 5.0 | 7.0 | 0.00 | 0.00 | 0.00 | 100 | 1004.2 |
| 20260905194303 | 54 | 267 | 7.0 | 10.0 | 0.00 | 0.00 | 0.00 | 100 | 1004.2 |
| 20260905194102 | 54 | 283 | 7.0 | 9.0 | 0.00 | 0.00 | 0.00 | 100 | 1004.2 |
| 20260905193901 | 54 | 277 | 6.0 | 10.0 | 0.00 | 0.00 | 0.00 | 100 | 1004.2 |
| 20260905193657 | 54 | 266 | 7.0 | 9.0 | 0.00 | 0.00 | 0.00 | 100 | 1004.2 |
| 20260905193456 | 54 | 273 | 8.0 | 10.0 | 0.00 | 0.00 | 0.00 | 100 | 1004.2 |
| 20260905193254 | 54 | 274 | 6.0 | 10.0 | 0.00 | 0.00 | 0.00 | 100 | 1004.3 |
| 20260905193052 | 54 | 288 | 6.0 | 9.0 | 0.00 | 0.00 | 0.00 | 100 | 1004.3 |
| 20260905192851 | 54 | 282 | 6.0 | 10.0 | 0.00 | 0.00 | 0.00 | 100 | 1004.2 |
| 20260905192657 | 54 | 271 | 7.0 | 10.0 | 0.00 | 0.00 | 0.00 | 100 | 1004.2 |
| 20260905192456 | 55 | 279 | 7.0 | 8.0 | 0.00 | 0.00 | 0.00 | 100 | 1004.2 |
| 20260905192254 | 55 | 280 | 8.0 | 12.0 | 0.00 | 0.00 | 0.00 | 100 | 1004.2 |
| 20260905192052 | 55 | 282 | 6.0 | 8.0 | 0.00 | 0.00 | 0.00 | 100 | 1004.2 |
| 20260905191851 | 55 | 284 | 6.0 | 12.0 | 0.00 | 0.00 | 0.00 | 100 | 1004.2 |
| 20260905191649 | 55 | 258 | 8.0 | 13.0 | 0.00 | 0.00 | 0.00 | 100 | 1004.2 |
| 20260905191447 | 54 | 293 | 5.0 | 9.0 | 0.00 | 0.00 | 0.00 | 100 | 1004.2 |
| 20260905191244 | 55 | 279 | 6.0 | 8.0 | 0.00 | 0.00 | 0.00 | 100 | 1004.2 |
| 20260905191043 | 54 | 288 | 7.0 | 10.0 | 0.00 | 0.00 | 0.00 | 100 | 1004.2 |
| 20260905190841 | 55 | 275 | 6.0 | 9.0 | 0.00 | 0.00 | 0.00 | 100 | 1004.2 |
| 20260905190649 | 55 | 279 | 6.0 | 9.0 | 0.00 | 0.00 | 0.00 | 100 | 1004.2 |
| 20260905190447 | 55 | 280 | 7.0 | 8.0 | 0.00 | 0.00 | 0.00 | 100 | 1004.1 |
| 20260905190245 | 55 | 288 | 7.0 | 8.0 | 0.00 | 0.00 | 0.00 | 100 | 1004.1 |
| 20260905190043 | 55 | 267 | 8.0 | 10.0 | 0.00 | 0.00 | 0.00 | 100 | 1004.1 |
| 20260905185842 | 55 | 276 | 8.0 | 10.0 | 0.00 | 0.00 | 0.00 | 100 | 1004.1 |
| 20260905185639 | 55 | 278 | 8.0 | 11.0 | 0.00 | 0.00 | 0.00 | 100 | 1004.0 |
| 20260905185437 | 55 | 285 | 6.0 | 10.0 | 0.00 | 0.00 | 0.00 | 100 | 1004.0 |
| 20260905185235 | 55 | 280 | 8.0 | 12.0 | 0.00 | 0.00 | 0.00 | 100 | 1004.0 |
| 20260905185034 | 55 | 275 | 6.0 | 9.0 | 0.00 | 0.00 | 0.00 | 100 | 1004.0 |
| 20260905184832 | 55 | 286 | 8.0 | 10.0 | 0.00 | 0.00 | 0.00 | 100 | 1004.0 |
| 20260905184637 | 55 | 276 | 8.0 | 10.0 | 0.00 | 0.00 | 0.00 | 100 | 1003.9 |
| 20260905184437 | 55 | 287 | 6.0 | 12.0 | 0.00 | 0.00 | 0.00 | 100 | 1003.9 |
| 20260905184235 | 55 | 271 | 7.0 | 10.0 | 0.00 | 0.00 | 0.00 | 100 | 1003.9 |
| 20260905184033 | 55 | 270 | 7.0 | 12.0 | 0.00 | 0.00 | 0.00 | 100 | 1003.9 |
| 20260905183831 | 55 | 279 | 7.0 | 9.0 | 0.00 | 0.00 | 0.00 | 100 | 1003.9 |
| 20260905183629 | 55 | 271 | 7.0 | 11.0 | 0.00 | 0.00 | 0.00 | 100 | 1003.9 |
| 20260905183427 | 55 | 291 | 6.0 | 9.0 | 0.00 | 0.00 | 0.00 | 100 | 1003.9 |
| 20260905183225 | 55 | 279 | 5.0 | 10.0 | 0.00 | 0.00 | 0.00 | 100 | 1003.8 |
| 20260905183023 | 55 | 292 | 3.0 | 7.0 | 0.00 | 0.00 | 0.00 | 100 | 1003.8 |
| 20260905182832 | 55 | 263 | 6.0 | 12.0 | 0.00 | 0.00 | 0.00 | 100 | 1003.9 |
| 20260905182629 | 55 | 268 | 6.0 | 7.0 | 0.00 | 0.00 | 0.00 | 100 | 1003.8 |
| 20260905182428 | 55 | 285 | 4.0 | 7.0 | 0.00 | 0.00 | 0.00 | 100 | 1003.8 |
| 20260905182226 | 55 | 290 | 5.0 | 9.0 | 0.00 | 0.00 | 0.00 | 100 | 1003.7 |
| 20260905182023 | 55 | 280 | 4.0 | 6.0 | 0.00 | 0.00 | 0.00 | 100 | 1003.7 |
| 20260905181822 | 55 | 289 | 5.0 | 9.0 | 0.00 | 0.00 | 0.00 | 100 | 1003.7 |
| 20260905181619 | 55 | 320 | 3.0 | 4.0 | 0.00 | 0.00 | 0.00 | 100 | 1003.7 |
| 20260905181417 | 55 | 275 | 3.0 | 5.0 | 0.00 | 0.00 | 0.00 | 100 | 1003.6 |
| 20260905181216 | 55 | 291 | 3.0 | 5.0 | 0.00 | 0.00 | 0.00 | 100 | 1003.6 |
| 20260905181024 | 55 | 287 | 4.0 | 5.0 | 0.00 | 0.00 | 0.00 | 100 | 1003.6 |
| 20260905180822 | 55 | 275 | 3.0 | 4.0 | 0.00 | 0.00 | 0.00 | 100 | 1003.6 |
| 20260905180619 | 55 | 272 | 4.0 | 5.0 | 0.00 | 0.00 | 0.00 | 100 | 1003.6 |
| 20260905180418 | 55 | 263 | 4.0 | 7.0 | 0.00 | 0.00 | 0.00 | 100 | 1003.6 |
| 20260905180216 | 55 | 283 | 3.0 | 4.0 | 0.00 | 0.00 | 0.00 | 100 | 1003.5 |
| 20260905180014 | 55 | 296 | 2.0 | 5.0 | 0.00 | 0.00 | 0.00 | 100 | 1003.5 |
| 20260905175813 | 55 | 315 | 2.0 | 3.0 | 0.00 | 0.00 | 0.00 | 100 | 1003.4 |
| 20260905175611 | 55 | 270 | 3.0 | 6.0 | 0.00 | 0.00 | 0.00 | 100 | 1003.4 |
| 20260905175409 | 55 | 295 | 2.0 | 3.0 | 0.00 | 0.00 | 0.00 | 100 | 1003.3 |
| 20260905175207 | 55 | 288 | 3.0 | 6.0 | 0.00 | 0.00 | 0.00 | 100 | 1020.1 |
| 20260905175015 | 55 | 310 | 2.0 | 4.0 | 0.00 | 0.00 | 0.00 | 100 | 1020.1 |
| 20260905174814 | 55 | 331 | 2.0 | 3.0 | 0.00 | 0.00 | 0.00 | 100 | 1003.3 |
| 20260905174606 | 55 | 327 | 2.0 | 4.0 | 0.00 | 0.00 | 0.00 | 100 | 1003.3 |
| 20260905174404 | 55 | 297 | 2.0 | 2.0 | 0.00 | 0.00 | 0.00 | 100 | 1003.3 |
| 20260905174212 | 55 | 311 | 2.0 | 3.0 | 0.00 | 0.00 | 0.00 | 100 | 1003.3 |
| 20260905174010 | 55 | 278 | 2.0 | 4.0 | 0.00 | 0.00 | 0.00 | 100 | 1003.2 |
| 20260905173809 | 55 | 283 | 3.0 | 4.0 | 0.00 | 0.00 | 0.00 | 100 | 1003.2 |
| 20260905173607 | 55 | 287 | 2.0 | 4.0 | 0.00 | 0.00 | 0.00 | 100 | 1003.2 |
| 20260905173405 | 56 | 277 | 3.0 | 4.0 | 0.00 | 0.00 | 0.00 | 100 | 1003.1 |
| 20260905173202 | 56 | 284 | 4.0 | 7.0 | 0.00 | 0.00 | 0.00 | 100 | 1003.1 |
| 20260905173001 | 56 | 283 | 6.0 | 9.0 | 0.00 | 0.00 | 0.00 | 100 | 1003.2 |
| 20260905172758 | 56 | 284 | 4.0 | 6.0 | 0.00 | 0.00 | 0.00 | 100 | 1003.1 |
| 20260905172556 | 56 | 265 | 5.0 | 9.0 | 0.00 | 0.00 | 0.00 | 100 | 1003.1 |
| 20260905172355 | 56 | 280 | 6.0 | 8.0 | 0.00 | 0.00 | 0.00 | 100 | 1003.1 |
| 20260905172202 | 56 | 270 | 7.0 | 8.0 | 0.00 | 0.00 | 0.00 | 100 | 1003.1 |
| 20260905172000 | 56 | 280 | 6.0 | 8.0 | 0.00 | 0.00 | 0.00 | 100 | 1003.0 |
| 20260905171758 | 56 | 274 | 6.0 | 8.0 | 0.00 | 0.00 | 0.00 | 100 | 1003.0 |
| 20260905171557 | 56 | 275 | 5.0 | 7.0 | 0.00 | 0.00 | 0.00 | 100 | 1003.0 |
| 20260905171355 | 56 | 275 | 6.0 | 9.0 | 0.00 | 0.00 | 0.00 | 100 | 1003.0 |
| 20260905171153 | 56 | 273 | 7.0 | 10.0 | 0.00 | 0.00 | 0.00 | 100 | 1003.1 |
| 20260905170951 | 56 | 283 | 7.0 | 11.0 | 0.00 | 0.00 | 0.00 | 100 | 1003.1 |
| 20260905170749 | 56 | 286 | 7.0 | 11.0 | 0.00 | 0.00 | 0.00 | 100 | 1003.1 |
| 20260905170547 | 56 | 279 | 6.0 | 8.0 | 0.00 | 0.00 | 0.00 | 100 | 1003.1 |
| 20260905170346 | 56 | 281 | 7.0 | 10.0 | 0.00 | 0.00 | 0.00 | 100 | 1003.0 |
| 20260905170153 | 56 | 279 | 7.0 | 8.0 | 0.00 | 0.00 | 0.00 | 100 | 1003.0 |
| 20260905165952 | 56 | 262 | 8.0 | 13.0 | 0.00 | 0.00 | 0.00 | 100 | 1003.1 |
| 20260905165750 | 56 | 275 | 9.0 | 12.0 | 0.00 | 0.00 | 0.00 | 100 | 1003.1 |
| 20260905165548 | 56 | 280 | 8.0 | 10.0 | 0.00 | 0.00 | 0.00 | 100 | 1003.1 |
| 20260905165346 | 56 | 279 | 8.0 | 10.0 | 0.00 | 0.00 | 0.00 | 100 | 1003.1 |
| 20260905165144 | 56 | 273 | 8.0 | 12.0 | 0.00 | 0.00 | 0.00 | 100 | 1003.1 |
| 20260905164942 | 56 | 264 | 10.0 | 12.0 | 0.00 | 0.00 | 0.00 | 100 | 1003.1 |
| 20260905164740 | 56 | 280 | 8.0 | 13.0 | 0.00 | 0.00 | 0.00 | 100 | 1003.0 |
| 20260905164537 | 56 | 278 | 9.0 | 10.0 | 0.00 | 0.00 | 0.00 | 100 | 1003.1 |
| 20260905164345 | 56 | 274 | 9.0 | 12.0 | 0.00 | 0.00 | 0.00 | 100 | 1003.1 |
| 20260905164143 | 56 | 281 | 8.0 | 13.0 | 0.00 | 0.00 | 0.00 | 100 | 1003.1 |
| 20260905163942 | 56 | 283 | 9.0 | 13.0 | 0.00 | 0.00 | 0.00 | 100 | 1003.1 |
| 20260905163739 | 56 | 266 | 10.0 | 14.0 | 0.00 | 0.00 | 0.00 | 100 | 1003.1 |
| 20260905163537 | 57 | 275 | 12.0 | 15.0 | 0.00 | 0.00 | 0.00 | 100 | 1003.0 |
| 20260905163336 | 57 | 271 | 12.0 | 15.0 | 0.00 | 0.00 | 0.00 | 100 | 1002.9 |
| 20260905163134 | 57 | 276 | 12.0 | 16.0 | 0.00 | 0.00 | 0.00 | 100 | 1002.9 |
| 20260905162932 | 57 | 275 | 12.0 | 15.0 | 0.00 | 0.00 | 0.00 | 100 | 1002.8 |
| 20260905162730 | 57 | 279 | 13.0 | 19.0 | 0.00 | 0.00 | 0.00 | 100 | 1002.8 |
| 20260905162538 | 57 | 269 | 9.0 | 14.0 | 0.00 | 0.00 | 0.00 | 100 | 1002.8 |
| 20260905162336 | 57 | 269 | 8.0 | 13.0 | 0.00 | 0.00 | 0.00 | 100 | 1002.8 |
| 20260905162134 | 57 | 277 | 8.0 | 10.0 | 0.00 | 0.00 | 0.00 | 100 | 1002.7 |
| 20260905161932 | 57 | 278 | 8.0 | 12.0 | 0.00 | 0.00 | 0.00 | 100 | 1002.7 |
| 20260905161731 | 57 | 273 | 8.0 | 10.0 | 0.00 | 0.00 | 0.00 | 100 | 1002.6 |
| 20260905161528 | 57 | 281 | 8.0 | 11.0 | 0.00 | 0.00 | 0.00 | 100 | 1002.6 |
| 20260905161327 | 57 | 276 | 8.0 | 10.0 | 0.00 | 0.00 | 0.00 | 100 | 1002.5 |
| 20260905161125 | 57 | 284 | 8.0 | 9.0 | 0.00 | 0.00 | 0.00 | 100 | 1002.5 |
| 20260905160923 | 57 | 273 | 9.0 | 14.0 | 0.00 | 0.00 | 0.00 | 100 | 1002.6 |
| 20260905160722 | 57 | 265 | 7.0 | 11.0 | 0.00 | 0.00 | 0.00 | 100 | 1002.6 |
| 20260905160529 | 57 | 273 | 7.0 | 9.0 | 0.00 | 0.00 | 0.00 | 100 | 1002.6 |
| 20260905160327 | 57 | 289 | 5.0 | 6.0 | 0.00 | 0.00 | 0.00 | 100 | 1002.6 |
| 20260905160125 | 57 | 284 | 4.0 | 9.0 | 0.00 | 0.00 | 0.00 | 100 | 1002.6 |
| 20260905155923 | 57 | 312 | 3.0 | 6.0 | 0.00 | 0.00 | 0.00 | 100 | 1002.6 |
| 20260905155723 | 57 | 292 | 4.0 | 8.0 | 0.00 | 0.00 | 0.00 | 100 | 1002.6 |
| 20260905155518 | 58 | 274 | 4.0 | 5.0 | 0.00 | 0.00 | 0.00 | 100 | 1002.6 |
| 20260905155317 | 58 | 287 | 6.0 | 10.0 | 0.00 | 0.00 | 0.00 | 100 | 1002.5 |
| 20260905155115 | 58 | 286 | 4.0 | 8.0 | 0.00 | 0.00 | 0.00 | 100 | 1002.3 |
| 20260905154914 | 58 | 247 | 3.0 | 7.0 | 0.00 | 0.00 | 0.00 | 100 | 1002.1 |
| 20260905154713 | 58 | 294 | 3.0 | 4.0 | 0.00 | 0.00 | 0.00 | 100 | 1001.9 |
| 20260905154518 | 59 | 282 | 5.0 | 8.0 | 0.00 | 0.00 | 0.00 | 100 | 1001.8 |
| 20260905154317 | 59 | 285 | 5.0 | 8.0 | 0.00 | 0.00 | 0.00 | 100 | 1001.7 |
| 20260905154115 | 59 | 285 | 3.0 | 5.0 | 0.00 | 0.00 | 0.00 | 100 | 1001.7 |
| 20260905153914 | 58 | 272 | 7.0 | 10.0 | 0.00 | 0.00 | 0.00 | 100 | 1001.8 |
| 20260905153712 | 58 | 289 | 4.0 | 7.0 | 0.00 | 0.00 | 0.00 | 100 | 1002.1 |
| 20260905153509 | 58 | 276 | 4.0 | 6.0 | 0.00 | 0.00 | 0.00 | 100 | 1002.3 |
| 20260905153308 | 58 | 273 | 8.0 | 12.0 | 0.00 | 0.00 | 0.00 | 100 | 1002.3 |
| 20260905153106 | 58 | 275 | 6.0 | 10.0 | 0.00 | 0.00 | 0.00 | 100 | 1002.4 |
| 20260905152904 | 58 | 276 | 9.0 | 10.0 | 0.00 | 0.00 | 0.00 | 100 | 1002.4 |
| 20260905152713 | 58 | 287 | 6.0 | 11.0 | 0.00 | 0.00 | 0.00 | 100 | 1002.4 |
| 20260905152510 | 58 | 272 | 8.0 | 13.0 | 0.00 | 0.00 | 0.00 | 100 | 1002.4 |
| 20260905152308 | 58 | 280 | 6.0 | 9.0 | 0.00 | 0.00 | 0.00 | 100 | 1002.4 |
| 20260905152106 | 59 | 298 | 5.0 | 10.0 | 0.00 | 0.00 | 0.00 | 100 | 1002.4 |
| 20260905151904 | 59 | 296 | 4.0 | 6.0 | 0.00 | 0.00 | 0.00 | 100 | 1002.4 |
| 20260905151703 | 59 | 278 | 7.0 | 11.0 | 0.00 | 0.00 | 0.00 | 100 | 1002.5 |
| 20260905151459 | 59 | 291 | 3.0 | 6.0 | 0.00 | 0.00 | 0.00 | 100 | 1002.5 |
| 20260905151258 | 59 | 282 | 5.0 | 7.0 | 0.00 | 0.00 | 0.00 | 100 | 1002.4 |
| 20260905151104 | 59 | 291 | 3.0 | 4.0 | 0.00 | 0.00 | 0.00 | 100 | 1002.4 |
| 20260905150904 | 59 | 271 | 3.0 | 8.0 | 0.00 | 0.00 | 0.00 | 100 | 1002.4 |
| 20260905150701 | 59 | 297 | 3.0 | 4.0 | 0.00 | 0.00 | 0.00 | 100 | 1002.4 |
| 20260905150457 | 59 | 324 | 2.0 | 5.0 | 0.00 | 0.00 | 0.00 | 100 | 1002.4 |
| 20260905150257 | 59 | 272 | 4.0 | 6.0 | 0.00 | 0.00 | 0.00 | 100 | 1002.4 |
| 20260905150055 | 59 | 323 | 2.0 | 4.0 | 0.00 | 0.00 | 0.00 | 100 | 1002.5 |
| 20260905145853 | 59 | 53 | 2.0 | 4.0 | 0.00 | 0.00 | 0.00 | 100 | 1002.5 |
| 20260905145652 | 59 | 286 | 2.0 | 4.0 | 0.00 | 0.00 | 0.00 | 100 | 1002.6 |
| 20260905145449 | 59 | 231 | 1.0 | 2.0 | 0.00 | 0.00 | 0.00 | 100 | 1002.6 |
| 20260905145248 | 59 | 202 | 3.0 | 6.0 | 0.00 | 0.00 | 0.00 | 100 | 1002.6 |
| 20260905145057 | 59 | 210 | 4.0 | 7.0 | 0.00 | 0.00 | 0.00 | 100 | 1002.7 |
| 20260905144855 | 60 | 166 | 0.0 | 1.0 | 0.00 | 0.00 | 0.00 | 100 | 1002.8 |
| 20260905144654 | 60 | 249 | 4.0 | 8.0 | 0.00 | 0.00 | 0.00 | 100 | 1002.7 |
| 20260905144451 | 60 | 283 | 3.0 | 6.0 | 0.00 | 0.00 | 0.00 | 100 | 1002.6 |
| 20260905144249 | 61 | 303 | 3.0 | 4.0 | 0.00 | 0.00 | 0.00 | 100 | 1002.5 |
| 20260905144047 | 62 | 302 | 3.0 | 6.0 | 0.00 | 0.00 | 0.00 | 100 | 1002.5 |
| 20260905143846 | 62 | 300 | 4.0 | 6.0 | 0.00 | 0.00 | 0.00 | 100 | 1002.4 |
| 20260905143645 | 62 | 276 | 6.0 | 8.0 | 0.00 | 0.00 | 0.00 | 100 | 1002.4 |
| 20260905143452 | 62 | 277 | 9.0 | 12.0 | 0.00 | 0.00 | 0.00 | 100 | 1002.4 |
| 20260905143250 | 62 | 277 | 9.0 | 10.0 | 0.00 | 0.00 | 0.00 | 100 | 1002.4 |
| 20260905143048 | 62 | 276 | 8.0 | 11.0 | 0.00 | 0.00 | 0.00 | 100 | 1002.4 |
| 20260905142846 | 62 | 279 | 8.0 | 11.0 | 0.00 | 0.00 | 0.00 | 100 | 1002.3 |
| 20260905142645 | 63 | 269 | 10.0 | 13.0 | 0.00 | 0.00 | 0.00 | 100 | 1002.2 |
| 20260905142442 | 63 | 279 | 11.0 | 15.0 | 0.00 | 0.00 | 0.00 | 100 | 1001.9 |
| 20260905142239 | 63 | 283 | 9.0 | 11.0 | 0.00 | 0.00 | 0.00 | 100 | 1001.7 |
| 20260905142039 | 63 | 279 | 9.0 | 12.0 | 0.00 | 0.00 | 0.00 | 100 | 1001.3 |
| 20260905141836 | 63 | 274 | 5.0 | 8.0 | 0.00 | 0.00 | 0.00 | 100 | 1001.0 |
| 20260905141635 | 63 | 276 | 5.0 | 6.0 | 0.00 | 0.00 | 0.00 | 100 | 1000.9 |
| 20260905141443 | 62 | 273 | 6.0 | 10.0 | 0.00 | 0.00 | 0.00 | 100 | 1001.1 |
| 20260905141240 | 62 | 273 | 5.0 | 8.0 | 0.00 | 0.00 | 0.00 | 100 | 1001.4 |
| 20260905141038 | 62 | 280 | 7.0 | 11.0 | 0.00 | 0.00 | 0.00 | 100 | 1001.6 |
| 20260905140837 | 62 | 280 | 6.0 | 10.0 | 0.00 | 0.00 | 0.00 | 100 | 1001.7 |
| 20260905140636 | 62 | 274 | 8.0 | 11.0 | 0.00 | 0.00 | 0.00 | 100 | 1001.7 |
| 20260905140433 | 62 | 279 | 6.0 | 10.0 | 0.00 | 0.00 | 0.00 | 100 | 1001.8 |
| 20260905140231 | 62 | 275 | 4.0 | 6.0 | 0.00 | 0.00 | 0.00 | 100 | 1001.8 |
| 20260905140029 | 62 | 267 | 2.0 | 3.0 | 0.00 | 0.00 | 0.00 | 100 | 1001.9 |
| 20260905135827 | 62 | 277 | 6.0 | 7.0 | 0.00 | 0.00 | 0.00 | 100 | 1001.9 |
| 20260905135626 | 62 | 282 | 6.0 | 8.0 | 0.00 | 0.00 | 0.00 | 100 | 1001.9 |
| 20260905135433 | 62 | 279 | 6.0 | 9.0 | 0.00 | 0.00 | 0.00 | 100 | 1001.9 |
| 20260905135231 | 62 | 277 | 7.0 | 11.0 | 0.00 | 0.00 | 0.00 | 100 | 1001.9 |
| 20260905135029 | 62 | 283 | 6.0 | 8.0 | 0.00 | 0.00 | 0.00 | 100 | 1001.9 |
| 20260905134827 | 63 | 283 | 6.0 | 8.0 | 0.00 | 0.00 | 0.00 | 100 | 1001.8 |
| 20260905134626 | 63 | 278 | 9.0 | 15.0 | 0.00 | 0.00 | 0.00 | 100 | 1001.8 |
| 20260905134422 | 63 | 275 | 8.0 | 13.0 | 0.00 | 0.00 | 0.00 | 100 | 1001.8 |
| 20260905134220 | 63 | 288 | 9.0 | 15.0 | 0.00 | 0.00 | 0.00 | 100 | 1001.8 |
| 20260905134018 | 63 | 273 | 9.0 | 12.0 | 0.00 | 0.00 | 0.00 | 100 | 1001.8 |
| 20260905133817 | 63 | 269 | 8.0 | 11.0 | 0.00 | 0.00 | 0.00 | 100 | 1001.8 |
| 20260905133625 | 63 | 268 | 9.0 | 13.0 | 0.00 | 0.00 | 0.00 | 100 | 1001.9 |
| 20260905133423 | 63 | 270 | 9.0 | 15.0 | 0.00 | 0.00 | 0.00 | 100 | 1001.9 |
| 20260905133222 | 63 | 270 | 11.0 | 17.0 | 0.00 | 0.00 | 0.00 | 100 | 1002.0 |
| 20260905133018 | 63 | 264 | 7.0 | 11.0 | 0.00 | 0.00 | 0.00 | 100 | 1002.1 |
| 20260905132817 | 63 | 269 | 8.0 | 12.0 | 0.00 | 0.00 | 0.00 | 100 | 1002.1 |
| 20260905132616 | 63 | 280 | 8.0 | 14.0 | 0.00 | 0.00 | 0.00 | 100 | 1002.0 |
| 20260905132413 | 63 | 280 | 7.0 | 11.0 | 0.00 | 0.00 | 0.00 | 100 | 1001.8 |
| 20260905132212 | 63 | 274 | 10.0 | 14.0 | 0.00 | 0.00 | 0.00 | 100 | 1001.7 |
| 20260905132009 | 64 | 290 | 5.0 | 8.0 | 0.00 | 0.00 | 0.00 | 100 | 1001.4 |
| 20260905131807 | 64 | 283 | 4.0 | 7.0 | 0.00 | 0.00 | 0.00 | 100 | 1001.1 |
| 20260905131616 | 64 | 292 | 7.0 | 11.0 | 0.00 | 0.00 | 0.00 | 100 | 1000.9 |
| 20260905131414 | 64 | 275 | 7.0 | 10.0 | 0.00 | 0.00 | 0.00 | 100 | 1000.9 |
| 20260905131212 | 64 | 276 | 6.0 | 9.0 | 0.00 | 0.00 | 0.00 | 100 | 1001.0 |
| 20260905131009 | 63 | 285 | 10.0 | 15.0 | 0.00 | 0.00 | 0.00 | 100 | 1001.1 |
| 20260905130808 | 63 | 277 | 11.0 | 14.0 | 0.00 | 0.00 | 0.00 | 100 | 1001.4 |
| 20260905130606 | 62 | 272 | 9.0 | 14.0 | 0.00 | 0.00 | 0.00 | 100 | 1001.7 |
| 20260905130404 | 62 | 278 | 10.0 | 14.0 | 0.00 | 0.00 | 0.00 | 100 | 1001.7 |
| 20260905130203 | 63 | 283 | 9.0 | 14.0 | 0.00 | 0.00 | 0.00 | 100 | 1001.9 |
| 20260905125959 | 63 | 281 | 8.0 | 11.0 | 0.00 | 0.00 | 0.00 | 100 | 1001.9 |
| 20260905125809 | 63 | 282 | 6.0 | 8.0 | 0.00 | 0.00 | 0.00 | 100 | 1001.9 |
| 20260905125607 | 63 | 269 | 7.0 | 11.0 | 0.00 | 0.00 | 0.00 | 100 | 1002.0 |
| 20260905125405 | 63 | 279 | 7.0 | 10.0 | 0.00 | 0.00 | 0.00 | 100 | 1002.0 |
| 20260905125203 | 63 | 281 | 9.0 | 12.0 | 0.00 | 0.00 | 0.00 | 100 | 1002.0 |
| 20260905125000 | 63 | 279 | 9.0 | 11.0 | 0.00 | 0.00 | 0.00 | 100 | 1001.9 |
| 20260905124758 | 63 | 278 | 11.0 | 16.0 | 0.00 | 0.00 | 0.00 | 100 | 1001.9 |
| 20260905124558 | 63 | 274 | 11.0 | 15.0 | 0.00 | 0.00 | 0.00 | 100 | 1001.8 |
| 20260905124354 | 63 | 278 | 9.0 | 13.0 | 0.00 | 0.00 | 0.00 | 100 | 1001.9 |
| 20260905124153 | 63 | 284 | 10.0 | 16.0 | 0.00 | 0.00 | 0.00 | 100 | 1001.8 |
| 20260905123959 | 63 | 272 | 10.0 | 14.0 | 0.00 | 0.00 | 0.00 | 100 | 1001.7 |
| 20260905123758 | 64 | 269 | 9.0 | 13.0 | 0.00 | 0.00 | 0.00 | 100 | 1001.6 |
| 20260905123557 | 64 | 273 | 10.0 | 14.0 | 0.00 | 0.00 | 0.00 | 100 | 1001.5 |
| 20260905123352 | 64 | 273 | 11.0 | 16.0 | 0.00 | 0.00 | 0.00 | 100 | 1001.4 |
| 20260905123150 | 64 | 289 | 6.0 | 11.0 | 0.00 | 0.00 | 0.00 | 100 | 1001.4 |
| 20260905122947 | 65 | 302 | 6.0 | 18.0 | 0.00 | 0.00 | 0.00 | 100 | 1001.4 |
| 20260905122746 | 65 | 278 | 10.0 | 13.0 | 0.00 | 0.00 | 0.00 | 100 | 1001.3 |
| 20260905122554 | 65 | 274 | 9.0 | 16.0 | 0.00 | 0.00 | 0.00 | 100 | 1001.1 |
| 20260905122352 | 65 | 267 | 10.0 | 18.0 | 0.00 | 0.00 | 0.00 | 100 | 1001.2 |
| 20260905122150 | 64 | 265 | 6.0 | 8.0 | 0.00 | 0.00 | 0.00 | 100 | 1001.5 |
| 20260905121948 | 64 | 286 | 8.0 | 10.0 | 0.00 | 0.00 | 0.00 | 100 | 1001.7 |
| 20260905121746 | 64 | 276 | 9.0 | 16.0 | 0.00 | 0.00 | 0.00 | 100 | 1001.7 |
| 20260905121545 | 65 | 284 | 9.0 | 13.0 | 0.00 | 0.00 | 0.00 | 100 | 1001.6 |
| 20260905121342 | 65 | 270 | 11.0 | 19.0 | 0.00 | 0.00 | 0.00 | 100 | 1001.4 |
| 20260905121140 | 66 | 285 | 8.0 | 12.0 | 0.00 | 0.00 | 0.00 | 100 | 1001.3 |
| 20260905120938 | 66 | 297 | 5.0 | 8.0 | 0.00 | 0.00 | 0.00 | 100 | 1001.0 |
| 20260905120737 | 67 | 274 | 9.0 | 15.0 | 0.00 | 0.00 | 0.00 | 100 | 1000.7 |
| 20260905120546 | 66 | 270 | 7.0 | 13.0 | 0.00 | 0.00 | 0.00 | 100 | 1001.1 |
| 20260905120344 | 65 | 306 | 5.0 | 11.0 | 0.00 | 0.00 | 0.00 | 100 | 1001.8 |
| 20260905120142 | 65 | 284 | 8.0 | 11.0 | 0.00 | 0.00 | 0.00 | 100 | 1001.8 |
| 20260905115939 | 66 | 284 | 12.0 | 18.0 | 0.00 | 0.00 | 0.00 | 100 | 1001.2 |
| 20260905115739 | 67 | 288 | 11.0 | 19.0 | 0.00 | 0.00 | 0.00 | 100 | 1000.6 |
| 20260905115536 | 67 | 286 | 6.0 | 8.0 | 0.00 | 0.00 | 0.00 | 100 | 1000.5 |
| 20260905115334 | 67 | 273 | 5.0 | 7.0 | 0.00 | 0.00 | 0.00 | 100 | 1000.4 |
| 20260905115132 | 66 | 17 | 4.0 | 7.0 | 0.00 | 0.00 | 0.00 | 100 | 1000.5 |
| 20260905114930 | 65 | 276 | 5.0 | 7.0 | 0.00 | 0.00 | 0.00 | 100 | 1000.6 |
| 20260905114728 | 65 | 299 | 5.0 | 8.0 | 0.00 | 0.00 | 0.00 | 100 | 1000.7 |
| 20260905114537 | 64 | 273 | 12.0 | 22.0 | 0.00 | 0.00 | 0.00 | 100 | 1001.0 |
| 20260905114333 | 64 | 278 | 13.0 | 22.0 | 0.00 | 0.00 | 0.00 | 100 | 1001.2 |
| 20260905114133 | 64 | 291 | 7.0 | 10.0 | 0.00 | 0.00 | 0.00 | 100 | 1001.3 |
| 20260905113929 | 64 | 283 | 9.0 | 18.0 | 0.00 | 0.00 | 0.00 | 100 | 1001.2 |
| 20260905113727 | 64 | 274 | 7.0 | 10.0 | 0.00 | 0.00 | 0.00 | 100 | 1001.1 |
| 20260905113526 | 64 | 275 | 11.0 | 16.0 | 0.00 | 0.00 | 0.00 | 100 | 1001.0 |
| 20260905113324 | 63 | 274 | 10.0 | 14.0 | 0.00 | 0.00 | 0.00 | 100 | 1001.2 |
| 20260905113122 | 63 | 286 | 7.0 | 12.0 | 0.00 | 0.00 | 0.00 | 100 | 1001.4 |
| 20260905112919 | 63 | 305 | 6.0 | 9.0 | 0.00 | 0.00 | 0.00 | 100 | 1001.5 |
| 20260905112728 | 63 | 311 | 6.0 | 9.0 | 0.00 | 0.00 | 0.00 | 100 | 1001.5 |
| 20260905112527 | 63 | 290 | 9.0 | 14.0 | 0.00 | 0.00 | 0.00 | 100 | 1001.4 |
| 20260905112325 | 63 | 289 | 8.0 | 12.0 | 0.00 | 0.00 | 0.00 | 100 | 1001.3 |
| 20260905112123 | 64 | 5 | 4.0 | 8.0 | 0.00 | 0.00 | 0.00 | 100 | 1001.1 |
| 20260905111921 | 64 | 259 | 5.0 | 8.0 | 0.00 | 0.00 | 0.00 | 100 | 1001.1 |
| 20260905111719 | 63 | 348 | 2.0 | 4.0 | 0.00 | 0.00 | 0.00 | 100 | 1001.4 |
| 20260905111518 | 63 | 268 | 4.0 | 6.0 | 0.00 | 0.00 | 0.00 | 100 | 1001.5 |
| 20260905111316 | 63 | 262 | 9.0 | 15.0 | 0.00 | 0.00 | 0.00 | 100 | 1001.5 |
| 20260905111115 | 63 | 285 | 6.0 | 8.0 | 0.00 | 0.00 | 0.00 | 100 | 1001.6 |
| 20260905110913 | 63 | 296 | 3.0 | 7.0 | 0.00 | 0.00 | 0.00 | 100 | 1001.6 |
| 20260905110720 | 63 | 348 | 3.0 | 4.0 | 0.00 | 0.00 | 0.00 | 100 | 1001.5 |
| 20260905110519 | 63 | 276 | 5.0 | 9.0 | 0.00 | 0.00 | 0.00 | 100 | 1001.3 |
| 20260905110317 | 63 | 285 | 5.0 | 8.0 | 0.00 | 0.00 | 0.00 | 100 | 1001.2 |
| 20260905110115 | 63 | 282 | 5.0 | 7.0 | 0.00 | 0.00 | 0.00 | 100 | 1001.1 |
| 20260905105913 | 64 | 303 | 4.0 | 10.0 | 0.00 | 0.00 | 0.00 | 100 | 1001.0 |
| 20260905105713 | 64 | 267 | 5.0 | 8.0 | 0.00 | 0.00 | 0.00 | 100 | 1000.9 |
| 20260905105510 | 63 | 277 | 7.0 | 10.0 | 0.00 | 0.00 | 0.00 | 100 | 1001.2 |
| 20260905105308 | 62 | 334 | 3.0 | 6.0 | 0.00 | 0.00 | 0.00 | 100 | 1001.4 |
| 20260905105107 | 63 | 276 | 7.0 | 10.0 | 0.00 | 0.00 | 0.00 | 100 | 1001.5 |
| 20260905104916 | 63 | 269 | 8.0 | 10.0 | 0.00 | 0.00 | 0.00 | 100 | 1001.4 |
| 20260905104713 | 63 | 274 | 8.0 | 13.0 | 0.00 | 0.00 | 0.00 | 100 | 1000.8 |
| 20260905104511 | 63 | 287 | 9.0 | 15.0 | 0.00 | 0.00 | 0.00 | 100 | 1000.6 |
| 20260905104307 | 62 | 278 | 7.0 | 10.0 | 0.00 | 0.00 | 0.00 | 100 | 1001.0 |
| 20260905104106 | 62 | 284 | 7.0 | 11.0 | 0.00 | 0.00 | 0.00 | 100 | 1001.2 |
| 20260905103904 | 62 | 267 | 9.0 | 11.0 | 0.00 | 0.00 | 0.00 | 100 | 1001.5 |
| 20260905103702 | 62 | 267 | 12.0 | 17.0 | 0.00 | 0.00 | 0.00 | 100 | 1001.6 |
| 20260905103500 | 62 | 272 | 11.0 | 17.0 | 0.00 | 0.00 | 0.00 | 100 | 1001.9 |
| 20260905103258 | 62 | 284 | 11.0 | 19.0 | 0.00 | 0.00 | 0.00 | 100 | 1001.9 |
| 20260905103106 | 62 | 290 | 8.0 | 11.0 | 0.00 | 0.00 | 0.00 | 100 | 1001.6 |
| 20260905102904 | 63 | 283 | 10.0 | 14.0 | 0.00 | 0.00 | 0.00 | 100 | 1001.3 |
| 20260905102703 | 63 | 270 | 14.0 | 24.0 | 0.00 | 0.00 | 0.00 | 100 | 1001.3 |
| 20260905102500 | 63 | 283 | 5.0 | 7.0 | 0.00 | 0.00 | 0.00 | 100 | 1001.2 |
| 20260905102258 | 63 | 281 | 9.0 | 16.0 | 0.00 | 0.00 | 0.00 | 100 | 1001.1 |
| 20260905102057 | 63 | 282 | 8.0 | 12.0 | 0.00 | 0.00 | 0.00 | 100 | 1001.1 |
| 20260905101854 | 63 | 259 | 10.0 | 15.0 | 0.00 | 0.00 | 0.00 | 100 | 1001.2 |
| 20260905101654 | 63 | 283 | 11.0 | 15.0 | 0.00 | 0.00 | 0.00 | 100 | 1001.5 |
| 20260905101451 | 63 | 271 | 11.0 | 16.0 | 0.00 | 0.00 | 0.00 | 100 | 1001.4 |
| 20260905101249 | 63 | 280 | 11.0 | 13.0 | 0.00 | 0.00 | 0.00 | 100 | 1001.4 |
| 20260905101057 | 63 | 323 | 5.0 | 8.0 | 0.00 | 0.00 | 0.00 | 100 | 1001.4 |
| 20260905100855 | 63 | 307 | 6.0 | 10.0 | 0.00 | 0.00 | 0.00 | 100 | 1001.4 |
| 20260905100654 | 64 | 278 | 10.0 | 17.0 | 0.00 | 0.00 | 0.00 | 100 | 1001.1 |
| 20260905100452 | 64 | 284 | 11.0 | 17.0 | 0.00 | 0.00 | 0.00 | 100 | 1001.0 |
| 20260905100251 | 64 | 287 | 8.0 | 12.0 | 0.00 | 0.00 | 0.00 | 100 | 1001.0 |
| 20260905100048 | 64 | 301 | 6.0 | 9.0 | 0.00 | 0.00 | 0.00 | 100 | 1001.0 |
| 20260905095844 | 64 | 273 | 10.0 | 18.0 | 0.00 | 0.00 | 0.00 | 100 | 1000.8 |
| 20260905095642 | 64 | 280 | 6.0 | 9.0 | 0.00 | 0.00 | 0.00 | 100 | 1000.8 |
| 20260905095450 | 64 | 269 | 5.0 | 11.0 | 0.00 | 0.00 | 0.00 | 100 | 1000.9 |
| 20260905095248 | 64 | 283 | 7.0 | 10.0 | 0.00 | 0.00 | 0.00 | 100 | 1000.9 |
| 20260905095047 | 64 | 286 | 7.0 | 10.0 | 0.00 | 0.00 | 0.00 | 100 | 1000.9 |
| 20260905094845 | 64 | 304 | 4.0 | 5.0 | 0.00 | 0.00 | 0.00 | 100 | 1000.9 |
| 20260905094643 | 64 | 276 | 7.0 | 11.0 | 0.00 | 0.00 | 0.00 | 100 | 1000.8 |
| 20260905094442 | 63 | 297 | 9.0 | 13.0 | 0.00 | 0.00 | 0.00 | 100 | 1000.7 |
| 20260905094238 | 63 | 258 | 13.0 | 17.0 | 0.00 | 0.00 | 0.00 | 100 | 1001.0 |
| 20260905094036 | 63 | 286 | 10.0 | 15.0 | 0.00 | 0.00 | 0.00 | 100 | 1001.1 |
| 20260905093834 | 63 | 275 | 12.0 | 16.0 | 0.00 | 0.00 | 0.00 | 100 | 1000.9 |
| 20260905093643 | 63 | 264 | 15.0 | 24.0 | 0.00 | 0.00 | 0.00 | 100 | 1000.8 |
| 20260905093442 | 63 | 281 | 5.0 | 11.0 | 0.00 | 0.00 | 0.00 | 100 | 1001.1 |
| 20260905093238 | 64 | 294 | 5.0 | 8.0 | 0.00 | 0.00 | 0.00 | 100 | 1000.9 |
| 20260905093037 | 64 | 276 | 7.0 | 8.0 | 0.00 | 0.00 | 0.00 | 100 | 1000.5 |
| 20260905092835 | 64 | 271 | 10.0 | 13.0 | 0.00 | 0.00 | 0.00 | 100 | 1000.4 |
| 20260905092634 | 63 | 280 | 12.0 | 20.0 | 0.00 | 0.00 | 0.00 | 100 | 1000.4 |
| 20260905092432 | 63 | 278 | 10.0 | 15.0 | 0.00 | 0.00 | 0.00 | 100 | 1000.6 |
| 20260905092229 | 63 | 277 | 12.0 | 20.0 | 0.00 | 0.00 | 0.00 | 100 | 1000.9 |
| 20260905092027 | 63 | 281 | 15.0 | 24.0 | 0.00 | 0.00 | 0.00 | 100 | 1000.7 |
| 20260905091835 | 64 | 275 | 12.0 | 17.0 | 0.00 | 0.00 | 0.00 | 100 | 1000.4 |
| 20260905091633 | 63 | 276 | 9.0 | 14.0 | 0.00 | 0.00 | 0.00 | 100 | 1000.4 |
| 20260905091432 | 63 | 268 | 10.0 | 13.0 | 0.00 | 0.00 | 0.00 | 100 | 1000.8 |
| 20260905091229 | 63 | 281 | 13.0 | 21.0 | 0.00 | 0.00 | 0.00 | 100 | 1000.8 |
| 20260905091028 | 63 | 291 | 7.0 | 14.0 | 0.00 | 0.00 | 0.00 | 100 | 1000.4 |
| 20260905090825 | 63 | 280 | 13.0 | 20.0 | 0.00 | 0.00 | 0.00 | 100 | 1000.4 |
| 20260905090624 | 63 | 267 | 11.0 | 15.0 | 0.00 | 0.00 | 0.00 | 100 | 1000.3 |
| 20260905090423 | 63 | 280 | 8.0 | 13.0 | 0.00 | 0.00 | 0.00 | 100 | 1000.2 |
| 20260905090219 | 62 | 270 | 11.0 | 22.0 | 0.00 | 0.00 | 0.00 | 100 | 1000.3 |
| 20260905090018 | 62 | 276 | 11.0 | 16.0 | 0.00 | 0.00 | 0.00 | 100 | 1000.4 |
| 20260905085826 | 62 | 259 | 10.0 | 17.0 | 0.00 | 0.00 | 0.00 | 100 | 1000.5 |
| 20260905085624 | 62 | 270 | 12.0 | 17.0 | 0.00 | 0.00 | 0.00 | 100 | 1000.8 |
| 20260905085423 | 63 | 258 | 11.0 | 13.0 | 0.00 | 0.00 | 0.00 | 100 | 1000.7 |
| 20260905085219 | 63 | 275 | 12.0 | 17.0 | 0.00 | 0.00 | 0.00 | 100 | 1000.5 |
| 20260905085018 | 63 | 272 | 12.0 | 14.0 | 0.00 | 0.00 | 0.00 | 100 | 1000.2 |
| 20260905084816 | 63 | 286 | 9.0 | 16.0 | 0.00 | 0.00 | 0.00 | 100 | 1000.2 |
| 20260905084614 | 63 | 282 | 10.0 | 17.0 | 0.00 | 0.00 | 0.00 | 100 | 1000.3 |
| 20260905084413 | 62 | 281 | 11.0 | 20.0 | 0.00 | 0.00 | 0.00 | 100 | 1000.6 |
| 20260905084210 | 63 | 290 | 10.0 | 15.0 | 0.00 | 0.00 | 0.00 | 100 | 1000.5 |
| 20260905084017 | 63 | 277 | 13.0 | 16.0 | 0.00 | 0.00 | 0.00 | 100 | 1000.4 |
| 20260905083816 | 63 | 270 | 10.0 | 15.0 | 0.00 | 0.00 | 0.00 | 100 | 1000.2 |
| 20260905083614 | 63 | 273 | 10.0 | 15.0 | 0.00 | 0.00 | 0.00 | 100 | 999.9 |
| 20260905083413 | 62 | 282 | 12.0 | 19.0 | 0.00 | 0.00 | 0.00 | 100 | 1000.3 |
| 20260905083211 | 62 | 269 | 11.0 | 14.0 | 0.00 | 0.00 | 0.00 | 100 | 1000.7 |
| 20260905083009 | 62 | 277 | 10.0 | 16.0 | 0.00 | 0.00 | 0.00 | 100 | 1000.4 |
| 20260905082807 | 62 | 268 | 12.0 | 16.0 | 0.00 | 0.00 | 0.00 | 100 | 1000.2 |
| 20260905082605 | 62 | 267 | 7.0 | 13.0 | 0.00 | 0.00 | 0.00 | 100 | 1000.2 |
| 20260905082404 | 62 | 284 | 7.0 | 9.0 | 0.00 | 0.00 | 0.00 | 100 | 1000.4 |
| 20260905082201 | 62 | 280 | 9.0 | 14.0 | 0.00 | 0.00 | 0.00 | 100 | 1000.3 |
| 20260905082010 | 62 | 288 | 10.0 | 14.0 | 0.00 | 0.00 | 0.00 | 100 | 999.9 |
| 20260905081808 | 62 | 270 | 10.0 | 16.0 | 0.00 | 0.00 | 0.00 | 100 | 999.8 |
| 20260905081607 | 62 | 262 | 9.0 | 12.0 | 0.00 | 0.00 | 0.00 | 100 | 999.7 |
| 20260905081405 | 62 | 288 | 9.0 | 13.0 | 0.00 | 0.00 | 0.00 | 100 | 999.6 |
| 20260905081203 | 62 | 270 | 12.0 | 15.0 | 0.00 | 0.00 | 0.00 | 100 | 999.8 |
| 20260905080959 | 61 | 275 | 9.0 | 12.0 | 0.00 | 0.00 | 0.00 | 100 | 1000.0 |
| 20260905080758 | 61 | 267 | 14.0 | 22.0 | 0.00 | 0.00 | 0.00 | 100 | 1000.3 |
| 20260905080556 | 62 | 277 | 11.0 | 15.0 | 0.00 | 0.00 | 0.00 | 100 | 1000.1 |
| 20260905080355 | 61 | 270 | 10.0 | 11.0 | 0.00 | 0.00 | 0.00 | 100 | 1000.1 |
| 20260905080152 | 61 | 282 | 10.0 | 16.0 | 0.00 | 0.00 | 0.00 | 100 | 1000.2 |
| 20260905075959 | 61 | 280 | 13.0 | 19.0 | 0.00 | 0.00 | 0.00 | 100 | 1000.5 |
| 20260905075758 | 62 | 281 | 8.0 | 11.0 | 0.00 | 0.00 | 0.00 | 100 | 1000.5 |
| 20260905075557 | 62 | 274 | 13.0 | 20.0 | 0.00 | 0.00 | 0.00 | 100 | 1000.3 |
| 20260905075355 | 62 | 276 | 11.0 | 15.0 | 0.00 | 0.00 | 0.00 | 100 | 1000.2 |
| 20260905075153 | 61 | 280 | 7.0 | 11.0 | 0.00 | 0.00 | 0.00 | 100 | 1000.1 |
| 20260905074951 | 62 | 281 | 12.0 | 14.0 | 0.00 | 0.00 | 0.00 | 100 | 999.6 |
| 20260905074749 | 62 | 276 | 9.0 | 14.0 | 0.00 | 0.00 | 0.00 | 100 | 999.2 |
| 20260905074547 | 62 | 276 | 10.0 | 17.0 | 0.00 | 0.00 | 0.00 | 100 | 999.1 |
| 20260905074346 | 62 | 288 | 9.0 | 13.0 | 0.00 | 0.00 | 0.00 | 100 | 998.8 |
| 20260905074152 | 61 | 279 | 9.0 | 15.0 | 0.00 | 0.00 | 0.00 | 100 | 998.7 |
| 20260905073950 | 61 | 278 | 11.0 | 18.0 | 0.00 | 0.00 | 0.00 | 100 | 998.6 |
| 20260905073748 | 61 | 288 | 7.0 | 10.0 | 0.00 | 0.00 | 0.00 | 100 | 998.9 |
| 20260905073547 | 60 | 308 | 6.0 | 12.0 | 0.00 | 0.00 | 0.00 | 100 | 999.0 |
| 20260905073345 | 60 | 263 | 10.0 | 14.0 | 0.00 | 0.00 | 0.00 | 100 | 999.1 |
| 20260905073143 | 60 | 261 | 11.0 | 15.0 | 0.00 | 0.00 | 0.00 | 100 | 999.4 |
| 20260905072938 | 60 | 276 | 8.0 | 13.0 | 0.00 | 0.00 | 0.00 | 100 | 999.8 |
| 20260905072737 | 60 | 268 | 12.0 | 18.0 | 0.00 | 0.00 | 0.00 | 100 | 999.7 |
| 20260905072545 | 60 | 290 | 9.0 | 13.0 | 0.00 | 0.00 | 0.00 | 100 | 999.7 |
| 20260905072344 | 60 | 287 | 5.0 | 7.0 | 0.00 | 0.00 | 0.00 | 100 | 999.6 |
| 20260905072138 | 60 | 288 | 8.0 | 9.0 | 0.00 | 0.00 | 0.00 | 100 | 999.6 |
| 20260905071936 | 60 | 278 | 10.0 | 18.0 | 0.00 | 0.00 | 0.00 | 100 | 999.6 |
| 20260905071734 | 60 | 283 | 9.0 | 14.0 | 0.00 | 0.00 | 0.00 | 100 | 999.5 |
| 20260905071533 | 60 | 278 | 10.0 | 13.0 | 0.00 | 0.00 | 0.00 | 100 | 999.6 |
| 20260905071331 | 60 | 290 | 7.0 | 10.0 | 0.00 | 0.00 | 0.00 | 100 | 999.7 |
| 20260905071139 | 60 | 280 | 11.0 | 15.0 | 0.00 | 0.00 | 0.00 | 100 | 999.6 |
| 20260905070937 | 60 | 270 | 11.0 | 17.0 | 0.00 | 0.00 | 0.00 | 100 | 999.5 |
| 20260905070735 | 60 | 286 | 9.0 | 12.0 | 0.00 | 0.00 | 0.00 | 100 | 999.5 |
| 20260905070533 | 60 | 295 | 6.0 | 8.0 | 0.00 | 0.00 | 0.00 | 100 | 999.4 |
| 20260905070332 | 60 | 281 | 10.0 | 14.0 | 0.00 | 0.00 | 0.00 | 100 | 999.3 |
| 20260905070130 | 60 | 287 | 4.0 | 7.0 | 0.00 | 0.00 | 0.00 | 100 | 999.2 |
| 20260905065928 | 59 | 274 | 9.0 | 14.0 | 0.00 | 0.00 | 0.00 | 100 | 999.1 |
| 20260905065726 | 59 | 289 | 6.0 | 13.0 | 0.00 | 0.00 | 0.00 | 100 | 999.1 |
| 20260905065524 | 59 | 281 | 6.0 | 9.0 | 0.00 | 0.00 | 0.00 | 100 | 999.1 |
| 20260905065323 | 59 | 274 | 11.0 | 18.0 | 0.00 | 0.00 | 0.00 | 100 | 999.1 |
| 20260905065131 | 59 | 284 | 5.0 | 8.0 | 0.00 | 0.00 | 0.00 | 100 | 999.2 |
| 20260905064929 | 59 | 282 | 8.0 | 18.0 | 0.00 | 0.00 | 0.00 | 100 | 999.0 |
| 20260905064726 | 59 | 265 | 9.0 | 22.0 | 0.00 | 0.00 | 0.00 | 100 | 999.0 |
| 20260905064525 | 59 | 289 | 6.0 | 14.0 | 0.00 | 0.00 | 0.00 | 100 | 999.0 |
| 20260905064323 | 59 | 280 | 7.0 | 11.0 | 0.00 | 0.00 | 0.00 | 100 | 999.1 |
| 20260905064119 | 59 | 282 | 7.0 | 9.0 | 0.00 | 0.00 | 0.00 | 100 | 999.0 |
| 20260905063918 | 59 | 284 | 10.0 | 17.0 | 0.00 | 0.00 | 0.00 | 100 | 998.8 |
| 20260905063716 | 59 | 289 | 8.0 | 14.0 | 0.00 | 0.00 | 0.00 | 100 | 998.5 |
| 20260905063515 | 59 | 302 | 6.0 | 14.0 | 0.00 | 0.00 | 0.00 | 100 | 998.7 |
| 20260905063323 | 59 | 288 | 6.0 | 10.0 | 0.00 | 0.00 | 0.00 | 100 | 999.1 |
| 20260905063121 | 59 | 275 | 8.0 | 13.0 | 0.00 | 0.00 | 0.00 | 100 | 999.2 |
| 20260905062919 | 59 | 283 | 6.0 | 9.0 | 0.00 | 0.00 | 0.00 | 100 | 999.2 |
| 20260905062717 | 59 | 280 | 8.0 | 11.0 | 0.00 | 0.00 | 0.00 | 100 | 999.1 |
| 20260905062515 | 59 | 300 | 5.0 | 9.0 | 0.00 | 0.00 | 0.00 | 100 | 999.1 |
| 20260905062314 | 59 | 297 | 6.0 | 8.0 | 0.00 | 0.00 | 0.00 | 100 | 999.0 |
| 20260905062112 | 59 | 278 | 6.0 | 11.0 | 0.00 | 0.00 | 0.00 | 100 | 999.0 |
| 20260905061910 | 59 | 293 | 4.0 | 6.0 | 0.00 | 0.00 | 0.00 | 100 | 999.0 |
| 20260905061707 | 59 | 291 | 5.0 | 7.0 | 0.00 | 0.00 | 0.00 | 100 | 999.0 |
| 20260905061506 | 59 | 276 | 4.0 | 8.0 | 0.00 | 0.00 | 0.00 | 100 | 999.0 |
| 20260905061315 | 59 | 291 | 4.0 | 7.0 | 0.00 | 0.00 | 0.00 | 100 | 998.6 |
| 20260905061112 | 59 | 281 | 6.0 | 11.0 | 0.00 | 0.00 | 0.00 | 100 | 998.5 |
| 20260905060911 | 58 | 291 | 3.0 | 6.0 | 0.00 | 0.00 | 0.00 | 100 | 998.7 |
| 20260905060708 | 58 | 285 | 6.0 | 13.0 | 0.00 | 0.00 | 0.00 | 100 | 998.8 |
| 20260905060506 | 58 | 292 | 4.0 | 7.0 | 0.00 | 0.00 | 0.00 | 100 | 998.8 |
| 20260905060305 | 58 | 308 | 4.0 | 7.0 | 0.00 | 0.00 | 0.00 | 100 | 998.9 |
| 20260905055900 | 58 | 284 | 6.0 | 14.0 | 0.00 | 0.00 | 0.00 | 100 | 998.9 |
| 20260905055658 | 59 | 305 | 4.0 | 8.0 | 0.00 | 0.00 | 0.00 | 100 | 999.0 |
| 20260905055457 | 59 | 314 | 4.0 | 7.0 | 0.00 | 0.00 | 0.00 | 100 | 999.1 |
| 20260905055306 | 59 | 314 | 4.0 | 8.0 | 0.00 | 0.00 | 0.00 | 100 | 999.1 |
| 20260905055103 | 59 | 287 | 5.0 | 8.0 | 0.00 | 0.00 | 0.00 | 100 | 999.0 |
| 20260905054902 | 59 | 309 | 4.0 | 7.0 | 0.00 | 0.00 | 0.00 | 100 | 998.8 |
| 20260905054659 | 59 | 289 | 4.0 | 7.0 | 0.00 | 0.00 | 0.00 | 100 | 998.3 |
| 20260905054457 | 59 | 270 | 6.0 | 11.0 | 0.00 | 0.00 | 0.00 | 100 | 998.0 |
| 20260905054256 | 59 | 294 | 4.0 | 7.0 | 0.00 | 0.00 | 0.00 | 100 | 997.9 |
| 20260905054053 | 59 | 270 | 6.0 | 10.0 | 0.00 | 0.00 | 0.00 | 100 | 997.7 |
| 20260905053851 | 59 | 275 | 6.0 | 9.0 | 0.00 | 0.00 | 0.00 | 100 | 997.6 |
| 20260905053658 | 58 | 312 | 4.0 | 8.0 | 0.00 | 0.00 | 0.00 | 100 | 997.8 |
| 20260905053457 | 58 | 303 | 4.0 | 7.0 | 0.00 | 0.00 | 0.00 | 100 | 998.0 |
| 20260905053255 | 58 | 295 | 4.0 | 7.0 | 0.00 | 0.00 | 0.00 | 100 | 998.3 |
| 20260905053053 | 58 | 277 | 6.0 | 10.0 | 0.00 | 0.00 | 0.00 | 100 | 998.5 |
| 20260905052852 | 58 | 290 | 5.0 | 8.0 | 0.00 | 0.00 | 0.00 | 100 | 998.6 |
| 20260905052650 | 58 | 297 | 6.0 | 8.0 | 0.00 | 0.00 | 0.00 | 100 | 998.6 |
| 20260905052447 | 58 | 298 | 4.0 | 5.0 | 0.00 | 0.00 | 0.00 | 100 | 998.6 |
| 20260905052246 | 58 | 273 | 7.0 | 10.0 | 0.00 | 0.00 | 0.00 | 100 | 998.5 |
| 20260905052043 | 58 | 282 | 8.0 | 12.0 | 0.00 | 0.00 | 0.00 | 100 | 998.5 |
| 20260905051842 | 58 | 286 | 6.0 | 11.0 | 0.00 | 0.00 | 0.00 | 100 | 998.5 |
| 20260905051650 | 58 | 282 | 6.0 | 12.0 | 0.00 | 0.00 | 0.00 | 100 | 998.3 |
| 20260905051448 | 58 | 283 | 8.0 | 12.0 | 0.00 | 0.00 | 0.00 | 100 | 998.2 |
| 20260905051246 | 58 | 283 | 9.0 | 12.0 | 0.00 | 0.00 | 0.00 | 100 | 998.3 |
| 20260905051044 | 58 | 305 | 6.0 | 10.0 | 0.00 | 0.00 | 0.00 | 100 | 998.4 |
| 20260905050842 | 58 | 288 | 7.0 | 12.0 | 0.00 | 0.00 | 0.00 | 100 | 998.4 |
| 20260905050640 | 58 | 296 | 6.0 | 11.0 | 0.00 | 0.00 | 0.00 | 100 | 998.4 |
| 20260905050438 | 58 | 289 | 7.0 | 11.0 | 0.00 | 0.00 | 0.00 | 100 | 998.3 |
| 20260905050237 | 58 | 280 | 7.0 | 12.0 | 0.00 | 0.00 | 0.00 | 100 | 998.3 |
| 20260905050034 | 58 | 283 | 7.0 | 13.0 | 0.00 | 0.00 | 0.00 | 100 | 998.3 |
| 20260905045833 | 58 | 270 | 6.0 | 13.0 | 0.00 | 0.00 | 0.00 | 100 | 998.2 |
| 20260905045640 | 58 | 288 | 7.0 | 12.0 | 0.00 | 0.00 | 0.00 | 100 | 998.1 |
| 20260905045438 | 58 | 281 | 8.0 | 12.0 | 0.00 | 0.00 | 0.00 | 100 | 998.1 |
| 20260905045238 | 58 | 286 | 7.0 | 10.0 | 0.00 | 0.00 | 0.00 | 100 | 998.1 |
| 20260905045035 | 58 | 290 | 6.0 | 9.0 | 0.00 | 0.00 | 0.00 | 100 | 998.1 |
| 20260905044834 | 58 | 253 | 11.0 | 19.0 | 0.00 | 0.00 | 0.00 | 100 | 998.1 |
| 20260905044629 | 58 | 268 | 8.0 | 12.0 | 0.00 | 0.00 | 0.00 | 100 | 997.9 |
| 20260905044427 | 58 | 297 | 8.0 | 19.0 | 0.00 | 0.00 | 0.00 | 100 | 997.9 |
| 20260905044226 | 58 | 290 | 9.0 | 12.0 | 0.00 | 0.00 | 0.00 | 100 | 998.0 |
| 20260905044032 | 58 | 280 | 8.0 | 11.0 | 0.00 | 0.00 | 0.00 | 100 | 998.0 |
| 20260905043831 | 58 | 278 | 9.0 | 16.0 | 0.00 | 0.00 | 0.00 | 100 | 998.0 |
| 20260905043629 | 58 | 273 | 6.0 | 10.0 | 0.00 | 0.00 | 0.00 | 100 | 997.9 |
| 20260905043426 | 58 | 282 | 8.0 | 12.0 | 0.00 | 0.00 | 0.00 | 100 | 997.9 |
| 20260905043225 | 57 | 270 | 11.0 | 16.0 | 0.00 | 0.00 | 0.00 | 100 | 997.9 |
| 20260905043022 | 58 | 282 | 8.0 | 13.0 | 0.00 | 0.00 | 0.00 | 100 | 997.9 |
| 20260905042821 | 57 | 276 | 9.0 | 14.0 | 0.00 | 0.00 | 0.00 | 100 | 998.0 |
| 20260905042618 | 58 | 286 | 7.0 | 9.0 | 0.00 | 0.00 | 0.00 | 100 | 997.9 |
| 20260905042427 | 58 | 259 | 10.0 | 14.0 | 0.00 | 0.00 | 0.00 | 100 | 997.9 |
| 20260905042226 | 58 | 283 | 10.0 | 16.0 | 0.00 | 0.00 | 0.00 | 100 | 997.8 |
| 20260905042023 | 58 | 289 | 9.0 | 11.0 | 0.00 | 0.00 | 0.00 | 100 | 997.8 |
| 20260905041822 | 58 | 277 | 10.0 | 13.0 | 0.00 | 0.00 | 0.00 | 100 | 997.7 |
| 20260905041619 | 58 | 276 | 7.0 | 9.0 | 0.00 | 0.00 | 0.00 | 100 | 997.7 |
| 20260905041418 | 58 | 264 | 11.0 | 19.0 | 0.00 | 0.00 | 0.00 | 100 | 997.8 |
| 20260905041217 | 57 | 276 | 8.0 | 10.0 | 0.00 | 0.00 | 0.00 | 100 | 997.8 |
| 20260905041014 | 57 | 279 | 8.0 | 10.0 | 0.00 | 0.00 | 0.00 | 100 | 997.8 |
| 20260905040813 | 57 | 274 | 5.0 | 7.0 | 0.00 | 0.00 | 0.00 | 100 | 997.8 |
| 20260905040611 | 57 | 279 | 6.0 | 10.0 | 0.00 | 0.00 | 0.00 | 100 | 997.8 |
| 20260905040418 | 57 | 296 | 6.0 | 8.0 | 0.00 | 0.00 | 0.00 | 100 | 997.7 |
| 20260905040217 | 57 | 276 | 6.0 | 9.0 | 0.00 | 0.00 | 0.00 | 100 | 997.6 |
| 20260905040014 | 57 | 286 | 8.0 | 14.0 | 0.00 | 0.00 | 0.00 | 100 | 997.6 |
| 20260905035813 | 57 | 282 | 7.0 | 11.0 | 0.00 | 0.00 | 0.00 | 100 | 997.6 |
| 20260905035611 | 57 | 296 | 7.0 | 14.0 | 0.00 | 0.00 | 0.00 | 100 | 997.6 |
| 20260905035409 | 57 | 271 | 7.0 | 12.0 | 0.00 | 0.00 | 0.00 | 100 | 997.6 |
| 20260905035207 | 57 | 292 | 7.0 | 9.0 | 0.00 | 0.00 | 0.00 | 100 | 997.6 |
| 20260905035005 | 57 | 285 | 8.0 | 10.0 | 0.00 | 0.00 | 0.00 | 100 | 997.6 |
| 20260905034803 | 57 | 284 | 8.0 | 11.0 | 0.00 | 0.00 | 0.00 | 100 | 997.6 |
| 20260905034601 | 57 | 289 | 6.0 | 8.0 | 0.00 | 0.00 | 0.00 | 100 | 997.6 |
| 20260905034410 | 57 | 286 | 8.0 | 12.0 | 0.00 | 0.00 | 0.00 | 100 | 997.6 |
| 20260905034208 | 58 | 273 | 8.0 | 11.0 | 0.00 | 0.00 | 0.00 | 100 | 997.6 |
| 20260905034004 | 57 | 272 | 10.0 | 15.0 | 0.00 | 0.00 | 0.00 | 100 | 997.6 |
| 20260905033803 | 57 | 265 | 10.0 | 14.0 | 0.00 | 0.00 | 0.00 | 100 | 997.5 |
| 20260905033600 | 57 | 279 | 8.0 | 11.0 | 0.00 | 0.00 | 0.00 | 100 | 997.5 |
| 20260905033358 | 57 | 278 | 9.0 | 13.0 | 0.00 | 0.00 | 0.00 | 100 | 997.5 |
| 20260905033157 | 58 | 272 | 8.0 | 12.0 | 0.00 | 0.00 | 0.00 | 100 | 997.5 |
| 20260905032955 | 58 | 285 | 7.0 | 9.0 | 0.00 | 0.00 | 0.00 | 100 | 997.5 |
| 20260905032753 | 58 | 280 | 7.0 | 12.0 | 0.00 | 0.00 | 0.00 | 100 | 997.5 |
| 20260905032601 | 58 | 279 | 6.0 | 13.0 | 0.00 | 0.00 | 0.00 | 100 | 997.4 |
| 20260905032359 | 58 | 252 | 7.0 | 10.0 | 0.00 | 0.00 | 0.00 | 100 | 997.4 |
| 20260905032157 | 58 | 288 | 9.0 | 14.0 | 0.00 | 0.00 | 0.00 | 100 | 997.3 |
| 20260905031955 | 58 | 293 | 8.0 | 14.0 | 0.00 | 0.00 | 0.00 | 100 | 997.3 |
| 20260905031754 | 58 | 290 | 10.0 | 20.0 | 0.00 | 0.00 | 0.00 | 100 | 997.3 |
| 20260905031551 | 58 | 288 | 6.0 | 8.0 | 0.00 | 0.00 | 0.00 | 100 | 997.3 |
| 20260905031350 | 58 | 292 | 8.0 | 9.0 | 0.00 | 0.00 | 0.00 | 100 | 997.2 |
| 20260905031148 | 58 | 279 | 9.0 | 13.0 | 0.00 | 0.00 | 0.00 | 100 | 997.2 |
| 20260905030945 | 58 | 270 | 14.0 | 20.0 | 0.00 | 0.00 | 0.00 | 100 | 997.1 |
| 20260905030744 | 58 | 281 | 10.0 | 13.0 | 0.00 | 0.00 | 0.00 | 100 | 997.2 |
| 20260905030552 | 58 | 278 | 11.0 | 18.0 | 0.00 | 0.00 | 0.00 | 100 | 997.1 |
| 20260905030350 | 58 | 277 | 12.0 | 17.0 | 0.00 | 0.00 | 0.00 | 100 | 997.0 |
| 20260905030148 | 58 | 288 | 9.0 | 13.0 | 0.00 | 0.00 | 0.00 | 100 | 997.1 |
| 20260905025946 | 58 | 276 | 10.0 | 14.0 | 0.00 | 0.00 | 0.00 | 100 | 997.1 |
| 20260905025744 | 58 | 277 | 9.0 | 13.0 | 0.00 | 0.00 | 0.00 | 100 | 997.0 |
| 20260905025542 | 58 | 276 | 10.0 | 16.0 | 0.00 | 0.00 | 0.00 | 100 | 997.0 |
| 20260905025340 | 58 | 286 | 8.0 | 11.0 | 0.00 | 0.00 | 0.00 | 100 | 997.0 |
| 20260905025138 | 58 | 283 | 9.0 | 17.0 | 0.00 | 0.00 | 0.00 | 100 | 997.0 |
| 20260905024937 | 58 | 272 | 8.0 | 11.0 | 0.00 | 0.00 | 0.00 | 100 | 996.9 |
| 20260905024735 | 58 | 289 | 7.0 | 10.0 | 0.00 | 0.00 | 0.00 | 100 | 996.8 |
| 20260905024543 | 58 | 289 | 10.0 | 14.0 | 0.00 | 0.00 | 0.00 | 100 | 996.9 |
| 20260905024341 | 58 | 270 | 10.0 | 15.0 | 0.00 | 0.00 | 0.00 | 100 | 996.8 |
| 20260905024139 | 58 | 284 | 10.0 | 13.0 | 0.00 | 0.00 | 0.00 | 100 | 996.8 |
| 20260905023936 | 59 | 281 | 10.0 | 14.0 | 0.00 | 0.00 | 0.00 | 100 | 996.7 |
| 20260905023734 | 58 | 271 | 10.0 | 12.0 | 0.00 | 0.00 | 0.00 | 100 | 996.7 |
| 20260905023532 | 58 | 287 | 9.0 | 11.0 | 0.00 | 0.00 | 0.00 | 100 | 996.6 |
| 20260905023330 | 58 | 278 | 11.0 | 17.0 | 0.00 | 0.00 | 0.00 | 100 | 996.5 |
| 20260905023129 | 58 | 268 | 11.0 | 14.0 | 0.00 | 0.00 | 0.00 | 100 | 996.4 |
| 20260905022936 | 58 | 279 | 10.0 | 13.0 | 0.00 | 0.00 | 0.00 | 100 | 996.1 |
| 20260905022735 | 58 | 273 | 12.0 | 18.0 | 0.00 | 0.00 | 0.00 | 100 | 995.9 |
| 20260905022533 | 58 | 268 | 10.0 | 17.0 | 0.00 | 0.00 | 0.00 | 100 | 995.6 |
| 20260905022331 | 59 | 265 | 13.0 | 20.0 | 0.00 | 0.00 | 0.00 | 100 | 995.9 |
| 20260905022159 | 59 | 267 | 12.0 | 18.0 | 0.00 | 0.00 | 0.00 | 100 | 996.1 |